Time;durP1;ratioP1;P1;durP2;ratioP2;P2;SDS_P1;SDS_P2;PMS_P1;PMS_P2;Temp;Humidity;BMP_temperature;BMP_pressure;BME280_temperature;BME280_humidity;BME280_pressure;Samples;Min_cycle;Max_cycle;Signal;HPM_P1;HPM_P2
2022/03/25 00:03:52;;;;;;;39.80;18.15;;;;;;;8.18;44.53;100796.78;12176923;19;20007;-78
2022/03/25 00:07:53;;;;;;;40.60;16.77;;;;;;;8.09;44.91;100806.25;12201875;19;20014;-78
2022/03/25 00:11:55;;;;;;;35.78;16.85;;;;;;;8.06;45.17;100804.81;12194593;19;20246;-78
2022/03/25 00:15:57;;;;;;;33.83;15.93;;;;;;;8.04;45.17;100798.66;12170239;19;20006;-79
2022/03/25 00:19:59;;;;;;;41.33;18.35;;;;;;;8.06;45.28;100802.06;12197304;19;20022;-78
2022/03/25 00:24:00;;;;;;;40.95;17.23;;;;;;;8.10;45.49;100808.81;12198832;19;20006;-78
2022/03/25 00:28:03;;;;;;;39.72;18.15;;;;;;;8.09;46.24;100800.75;12192248;19;20017;-78
2022/03/25 00:32:05;;;;;;;50.70;18.15;;;;;;;8.17;45.63;100803.31;12196004;19;21533;-78
2022/03/25 00:36:09;;;;;;;36.97;17.40;;;;;;;8.13;45.59;100810.28;12213128;19;20011;-78
2022/03/25 00:40:11;;;;;;;43.42;17.70;;;;;;;8.04;45.88;100801.41;12189780;19;20010;-78
2022/03/25 00:44:13;;;;;;;35.33;16.73;;;;;;;7.96;46.02;100798.84;12195643;19;20003;-78
2022/03/25 00:48:17;;;;;;;37.70;17.52;;;;;;;7.87;46.40;100797.38;12188755;19;20121;-78
2022/03/25 00:52:24;;;;;;;34.75;16.85;;;;;;;7.77;46.98;100797.78;12207099;19;20022;-78
2022/03/25 00:56:28;;;;;;;37.65;17.17;;;;;;;7.66;47.32;100790.13;12212845;19;20570;-78
2022/03/25 01:00:31;;;;;;;40.67;18.65;;;;;;;7.54;47.44;100787.16;12189122;19;20797;-78
2022/03/25 01:04:35;;;;;;;43.20;17.65;;;;;;;7.43;47.76;100791.31;12206646;19;20026;-78
2022/03/25 01:08:37;;;;;;;36.67;17.48;;;;;;;7.34;47.89;100791.72;12203170;19;20031;-78
2022/03/25 01:12:39;;;;;;;35.75;17.08;;;;;;;7.23;48.23;100790.41;12181352;19;20010;-77
2022/03/25 01:16:41;;;;;;;36.37;17.20;;;;;;;7.13;48.44;100784.44;12205354;19;20102;-77
2022/03/25 01:20:43;;;;;;;39.53;17.52;;;;;;;7.03;49.07;100779.34;12208008;19;20544;-77
2022/03/25 01:24:44;;;;;;;36.72;17.63;;;;;;;6.96;49.11;100783.94;12179016;19;20037;-77
2022/03/25 01:28:46;;;;;;;39.15;17.77;;;;;;;6.84;49.50;100786.38;12219871;19;20030;-78
2022/03/25 01:32:50;;;;;;;40.17;16.83;;;;;;;6.69;50.14;100788.41;12211935;19;20010;-78
2022/03/25 01:36:51;;;;;;;35.80;17.00;;;;;;;6.55;50.09;100782.00;12184486;19;20006;-78
2022/03/25 01:40:53;;;;;;;40.88;19.65;;;;;;;6.45;50.66;100789.72;12197109;19;20100;-78
2022/03/25 01:44:56;;;;;;;36.60;17.63;;;;;;;6.34;50.78;100778.28;12203372;19;20038;-78
2022/03/25 01:48:58;;;;;;;41.88;18.15;;;;;;;6.26;51.04;100775.69;12176334;19;20018;-78
2022/03/25 01:53:01;;;;;;;34.42;15.98;;;;;;;6.18;51.44;100767.59;12204331;19;20101;-78
2022/03/25 01:57:05;;;;;;;37.40;16.73;;;;;;;6.09;51.99;100774.25;12200683;19;20579;-77
2022/03/25 02:01:07;;;;;;;33.70;16.42;;;;;;;5.98;52.09;100770.19;12175890;19;20011;-77
2022/03/25 02:05:10;;;;;;;35.33;16.02;;;;;;;5.90;52.58;100767.53;12190616;19;20015;-77
2022/03/25 02:09:12;;;;;;;36.72;15.57;;;;;;;5.80;52.84;100767.88;12192768;19;20086;-78
2022/03/25 02:13:14;;;;;;;35.72;16.52;;;;;;;5.69;53.01;100765.66;12200627;19;20014;-78
2022/03/25 02:17:21;;;;;;;34.47;16.00;;;;;;;5.62;53.34;100767.44;12210985;19;20463;-77
2022/03/25 02:21:28;;;;;;;34.88;16.02;;;;;;;5.57;53.97;100756.28;12186731;19;20084;-78
2022/03/25 02:25:31;;;;;;;38.60;16.17;;;;;;;5.49;54.42;100744.41;12207324;19;20103;-78
2022/03/25 02:29:37;;;;;;;39.40;16.20;;;;;;;5.40;56.77;100751.03;12205324;19;20007;-78
2022/03/25 02:33:38;;;;;;;35.65;17.40;;;;;;;5.36;57.44;100757.09;12180857;19;20464;-77
2022/03/25 02:37:41;;;;;;;39.50;17.07;;;;;;;5.29;57.96;100754.25;12203330;19;20011;-77
2022/03/25 02:41:43;;;;;;;40.78;16.58;;;;;;;5.21;58.71;100749.78;12204458;19;20303;-77
2022/03/25 02:45:44;;;;;;;35.83;15.75;;;;;;;5.13;57.72;100743.56;12181404;19;20014;-77
2022/03/25 02:49:46;;;;;;;33.33;16.92;;;;;;;5.00;58.10;100758.75;12203189;19;20026;-78
2022/03/25 02:53:48;;;;;;;38.10;17.63;;;;;;;4.89;58.68;100759.22;12200592;19;20003;-78
2022/03/25 02:57:49;;;;;;;40.33;17.48;;;;;;;4.80;60.48;100750.28;12179269;19;20015;-78
2022/03/25 03:01:52;;;;;;;34.25;15.85;;;;;;;4.67;64.14;100760.16;12205739;19;20010;-77
2022/03/25 03:05:53;;;;;;;41.88;18.48;;;;;;;4.67;62.99;100760.16;12207676;19;20352;-78
2022/03/25 03:09:55;;;;;;;38.33;16.98;;;;;;;4.61;62.75;100763.66;12178633;19;20032;-78
2022/03/25 03:13:58;;;;;;;35.00;15.75;;;;;;;4.52;62.32;100763.75;12200521;19;20014;-77
2022/03/25 03:18:00;;;;;;;34.10;15.52;;;;;;;4.38;64.44;100756.41;12209664;19;20034;-78
2022/03/25 03:22:02;;;;;;;40.23;16.77;;;;;;;4.28;65.37;100761.25;12178756;19;20013;-78
2022/03/25 03:26:04;;;;;;;33.20;17.15;;;;;;;4.15;67.14;100767.38;12202512;19;20373;-78
2022/03/25 03:30:11;;;;;;;34.53;15.90;;;;;;;4.10;66.12;100762.47;12202732;19;20049;-78
2022/03/25 03:34:13;;;;;;;37.25;16.30;;;;;;;3.99;66.19;100757.47;12183436;19;20384;-77
2022/03/25 03:38:14;;;;;;;41.65;17.33;;;;;;;3.89;67.18;100757.69;12221307;19;20114;-78
2022/03/25 03:42:17;;;;;;;37.37;18.30;;;;;;;3.89;68.90;100759.56;12199362;19;20050;-77
2022/03/25 03:46:18;;;;;;;35.83;16.98;;;;;;;3.91;68.81;100760.25;12185835;19;20037;-77
2022/03/25 03:50:20;;;;;;;39.88;17.88;;;;;;;3.85;68.96;100764.56;12196302;19;20021;-77
2022/03/25 03:54:23;;;;;;;39.55;18.05;;;;;;;3.82;69.07;100762.19;12169796;19;20050;-77
2022/03/25 03:58:25;;;;;;;38.92;18.20;;;;;;;3.78;68.39;100760.03;12199435;19;20045;-77
2022/03/25 04:02:28;;;;;;;41.03;19.55;;;;;;;3.74;69.16;100761.41;12220203;19;20010;-78
2022/03/25 04:06:32;;;;;;;37.55;18.73;;;;;;;3.70;70.24;100773.72;12202040;19;20004;-77
2022/03/25 04:10:33;;;;;;;45.20;19.42;;;;;;;3.60;71.01;100782.13;12225366;19;20010;-77
2022/03/25 04:14:36;;;;;;;35.35;17.88;;;;;;;3.53;71.75;100784.72;12218499;19;20085;-77
2022/03/25 04:18:38;;;;;;;40.33;18.43;;;;;;;3.47;71.92;100777.25;12201568;19;20743;-77
2022/03/25 04:22:40;;;;;;;31.77;13.83;;;;;;;3.40;72.03;100770.84;12226545;19;20007;-77
2022/03/25 04:26:42;;;;;;;38.20;19.55;;;;;;;3.34;72.25;100769.69;12211831;19;20014;-77
2022/03/25 04:30:43;;;;;;;45.80;20.20;;;;;;;3.30;70.63;100768.34;12193302;19;20078;-77
2022/03/25 04:34:45;;;;;;;47.33;18.95;;;;;;;3.25;69.82;100769.91;12223564;19;20328;-78
2022/03/25 04:38:47;;;;;;;42.72;20.02;;;;;;;3.17;70.03;100774.34;12209662;19;20014;-77
2022/03/25 04:42:50;;;;;;;42.17;19.65;;;;;;;3.07;69.92;100776.47;12195276;19;20078;-78
2022/03/25 04:46:54;;;;;;;42.55;18.20;;;;;;;3.02;69.76;100769.84;12214583;19;20021;-77
2022/03/25 04:50:55;;;;;;;43.05;19.70;;;;;;;2.96;70.53;100769.53;12207928;19;20567;-78
2022/03/25 04:54:57;;;;;;;38.50;18.27;;;;;;;2.93;70.67;100774.47;12183792;19;20701;-77
2022/03/25 04:58:59;;;;;;;39.95;18.38;;;;;;;2.92;70.26;100775.50;12221307;19;20025;-78
2022/03/25 05:03:00;;;;;;;38.10;18.27;;;;;;;2.89;71.09;100764.97;12211199;19;20007;-76
2022/03/25 05:07:03;;;;;;;;;;;;;;;2.84;71.89;100772.81;12199054;19;20007;-77
2022/03/25 05:11:05;;;;;;;35.63;16.38;;;;;;;2.77;71.28;100785.41;12212685;19;19903;-76
2022/03/25 05:15:07;;;;;;;34.50;17.45;;;;;;;2.74;71.93;100789.38;12202205;19;20010;-76
2022/03/25 05:19:09;;;;;;;34.17;17.30;;;;;;;2.77;71.41;100796.31;12183802;19;20096;-77
2022/03/25 05:23:12;;;;;;;37.17;17.52;;;;;;;2.78;71.60;100800.75;12200597;19;20393;-78
2022/03/25 05:27:14;;;;;;;38.10;18.20;;;;;;;2.80;72.10;100812.31;12181391;19;20011;-77
2022/03/25 05:31:16;;;;;;;37.17;17.45;;;;;;;2.80;73.16;100810.44;12198729;19;20010;-78
2022/03/25 05:35:22;;;;;;;40.10;17.55;;;;;;;2.84;72.41;100802.75;12211217;19;20010;-78
2022/03/25 05:39:24;;;;;;;36.53;17.10;;;;;;;2.92;72.36;100805.47;12178917;19;20070;-78
2022/03/25 05:43:25;;;;;;;35.08;16.95;;;;;;;2.99;74.09;100803.72;12205875;19;20011;-78
2022/03/25 05:47:28;;;;;;;;;;;;;;;3.06;73.27;100810.16;12201412;19;20313;-78
2022/03/25 05:51:30;;;;;;;34.22;15.77;;;;;;;3.15;71.84;100828.19;12179950;19;19967;-78
2022/03/25 05:55:33;;;;;;;34.83;17.70;;;;;;;3.22;72.30;100841.09;12197453;19;20018;-78
2022/03/25 05:59:35;;;;;;;37.15;17.38;;;;;;;3.30;72.94;100838.31;12210941;19;20011;-78
2022/03/25 06:03:36;;;;;;;43.00;18.52;;;;;;;3.37;72.75;100839.31;12190526;19;20840;-78
2022/03/25 06:07:43;;;;;;;40.92;17.77;;;;;;;3.50;72.02;100845.03;12201521;19;20011;-77
2022/03/25 06:11:46;;;;;;;37.28;17.30;;;;;;;3.64;72.00;100840.69;12208320;19;20018;-78
2022/03/25 06:15:48;;;;;;;39.27;18.13;;;;;;;3.77;71.35;100848.28;12187772;19;20070;-78
2022/03/25 06:19:50;;;;;;;41.40;18.53;;;;;;;3.92;71.68;100851.91;12197046;19;20630;-78
2022/03/25 06:23:51;;;;;;;41.70;18.08;;;;;;;4.06;71.41;100848.41;12212825;19;20011;-78
2022/03/25 06:27:58;;;;;;;36.80;17.95;;;;;;;4.21;71.39;100853.94;12188771;19;20202;-78
2022/03/25 06:31:59;;;;;;;39.75;18.70;;;;;;;4.34;70.97;100865.09;12192916;19;20360;-80
2022/03/25 06:36:01;;;;;;;39.45;18.23;;;;;;;4.48;71.35;100862.56;12201941;19;20014;-80
2022/03/25 06:40:07;;;;;;;37.92;17.88;;;;;;;4.57;71.57;100859.56;12150563;19;20014;-80
2022/03/25 06:44:09;;;;;;;43.38;19.77;;;;;;;4.70;70.91;100864.41;12205557;19;20035;-79
2022/03/25 06:48:11;;;;;;;38.20;18.77;;;;;;;4.82;71.07;100856.63;12206473;19;20007;-78
2022/03/25 06:52:13;;;;;;;38.63;18.13;;;;;;;5.00;70.16;100859.84;12200465;19;20018;-79
2022/03/25 06:56:16;;;;;;;41.45;19.63;;;;;;;5.22;69.27;100860.75;12219146;19;20021;-79
2022/03/25 07:00:24;;;;;;;48.38;18.55;;;;;;;5.46;68.88;100859.59;12188792;19;20081;-80
2022/03/25 07:04:26;;;;;;;39.55;18.35;;;;;;;5.69;67.99;100872.31;12209652;19;20015;-79
2022/03/25 07:08:29;;;;;;;39.42;17.55;;;;;;;5.96;67.35;100867.16;12208424;19;20066;-79
2022/03/25 07:12:32;;;;;;;38.97;18.77;;;;;;;6.27;66.23;100861.38;12188867;19;20462;-79
2022/03/25 07:16:37;;;;;;;40.58;17.98;;;;;;;6.53;65.69;100877.19;12204894;19;20002;-79
2022/03/25 07:20:39;;;;;;;45.58;24.17;;;;;;;6.79;64.75;100871.09;12206208;19;20034;-79
2022/03/25 07:24:40;;;;;;;41.92;20.17;;;;;;;7.06;63.95;100866.66;12189182;19;20070;-79
2022/03/25 07:28:43;;;;;;;45.13;19.17;;;;;;;7.37;62.60;100879.88;12203710;19;20027;-79
2022/03/25 07:32:47;;;;;;;42.25;20.15;;;;;;;7.62;62.04;100885.72;12208889;19;20030;-79
2022/03/25 07:36:48;;;;;;;42.67;21.15;;;;;;;7.83;59.27;100882.00;12201967;19;20019;-80
2022/03/25 07:40:50;;;;;;;44.35;20.13;;;;;;;8.08;58.02;100879.53;12228217;19;20017;-79
2022/03/25 07:44:52;;;;;;;38.90;19.80;;;;;;;8.39;57.66;100895.50;12204066;19;20030;-80
2022/03/25 07:48:53;;;;;;;41.25;20.17;;;;;;;8.65;56.71;100891.91;12175570;19;20402;-79
2022/03/25 07:52:55;;;;;;;41.35;20.30;;;;;;;8.77;55.35;100903.09;12199900;19;20018;-79
2022/03/25 07:56:58;;;;;;;42.92;21.02;;;;;;;8.97;55.11;100899.50;12206297;19;20073;-79
2022/03/25 08:01:01;;;;;;;40.83;20.73;;;;;;;9.18;54.52;100902.03;12182546;19;20440;-79
2022/03/25 08:05:03;;;;;;;38.97;19.23;;;;;;;9.35;53.23;100894.16;12197897;19;20023;-79
2022/03/25 08:09:05;;;;;;;45.77;22.03;;;;;;;9.62;52.81;100905.94;12210766;19;20268;-79
2022/03/25 08:13:07;;;;;;;44.75;21.33;;;;;;;9.99;52.71;100896.06;12182071;19;20010;-79
2022/03/25 08:17:09;;;;;;;41.28;21.40;;;;;;;10.22;51.47;100897.41;12202322;19;20692;-79
2022/03/25 08:21:11;;;;;;;45.00;22.98;;;;;;;10.56;51.48;100898.03;12194198;19;20011;-79
2022/03/25 08:29:36;;;;;;;46.38;21.90;;;;;;;11.26;50.35;100898.72;12206894;19;20007;-80
2022/03/25 08:33:37;;;;;;;48.95;22.30;;;;;;;11.48;49.37;100892.75;12178130;19;20022;-80
2022/03/25 08:37:39;;;;;;;46.90;23.50;;;;;;;11.67;47.61;100897.19;12197199;19;20070;-80
2022/03/25 08:41:41;;;;;;;46.90;24.35;;;;;;;11.90;46.92;100892.91;12200271;19;20254;-80
2022/03/25 08:45:43;;;;;;;42.85;21.60;;;;;;;12.22;46.98;100891.59;12178835;19;20011;-80
2022/03/25 08:49:45;;;;;;;43.35;22.27;;;;;;;12.29;45.24;100895.13;12213837;19;20030;-81
2022/03/25 08:53:47;;;;;;;40.63;23.90;;;;;;;12.62;45.45;100893.78;12210512;19;20090;-81
2022/03/25 08:57:49;;;;;;;44.92;23.33;;;;;;;12.89;44.56;100894.19;12184289;19;20069;-79
2022/03/25 09:01:51;;;;;;;46.27;24.40;;;;;;;13.05;44.47;100898.16;12202204;19;20010;-80
2022/03/25 09:05:53;;;;;;;44.78;24.40;;;;;;;13.22;43.20;100907.44;12206297;19;20034;-80
2022/03/25 09:09:56;;;;;;;;;;;;;;;13.35;42.55;100909.16;12186043;19;20021;-80
2022/03/25 09:13:58;;;;;;;45.70;23.83;;;;;;;13.51;41.81;100902.06;12206291;19;20700;-80
2022/03/25 09:18:01;;;;;;;45.72;23.27;;;;;;;13.67;41.50;100900.44;12211800;19;20346;-80
2022/03/25 09:22:08;;;;;;;39.10;22.42;;;;;;;13.87;41.36;100905.59;12184375;19;20074;-81
2022/03/25 09:26:09;;;;;;;44.43;24.90;;;;;;;14.03;41.17;100904.81;12205268;19;20419;-81
2022/03/25 09:30:13;;;;;;;46.72;23.65;;;;;;;13.89;39.25;100903.41;12206120;19;20010;-79
2022/03/25 09:38:55;;;;;;;46.05;24.60;;;;;;;14.50;39.15;100904.59;12203124;19;20485;-79
2022/03/25 09:42:57;;;;;;;41.45;23.00;;;;;;;14.90;39.17;100906.47;12185643;19;20022;-80
2022/03/25 09:47:01;;;;;;;45.65;25.50;;;;;;;14.94;37.27;100899.31;12207331;19;20026;-80
2022/03/25 09:51:05;;;;;;;41.40;23.25;;;;;;;15.13;38.59;100902.66;12209148;19;20010;-80
2022/03/25 09:55:14;;;;;;;44.58;23.80;;;;;;;15.33;36.54;100906.84;12182935;19;20031;-81
2022/03/25 09:59:20;;;;;;;47.97;25.02;;;;;;;15.70;37.35;100902.44;12205633;19;20011;-80
2022/03/25 10:03:32;;;;;;;46.58;25.25;;;;;;;15.91;36.12;100903.53;12185035;19;20023;-80
2022/03/25 10:07:42;;;;;;;;;;;;;;;16.09;36.49;100899.59;12207897;19;20019;-81
2022/03/25 10:11:45;;;;;;;38.15;23.55;;;;;;;16.25;35.59;100894.19;12217123;19;19936;-81
2022/03/25 10:15:47;;;;;;;39.92;22.75;;;;;;;16.57;35.85;100891.47;12189984;19;20022;-81
2022/03/25 10:19:54;;;;;;;41.10;24.20;;;;;;;16.83;35.49;100904.50;12208204;19;20364;-81
2022/03/25 10:23:55;;;;;;;39.35;23.13;;;;;;;17.04;34.96;100897.22;12210428;19;20010;-81
2022/03/25 10:27:58;;;;;;;44.38;24.92;;;;;;;17.16;33.62;100890.59;12200344;19;20031;-82
2022/03/25 10:32:14;;;;;;;39.88;24.75;;;;;;;17.43;33.92;100896.06;12209553;19;20007;-82
2022/03/25 10:36:20;;;;;;;38.83;24.00;;;;;;;17.60;33.16;100895.88;12179004;19;20006;-80
2022/03/25 10:40:22;;;;;;;47.17;26.52;;;;;;;17.63;32.85;100892.56;12209310;19;20028;-80
2022/03/25 10:44:38;;;;;;;43.85;26.05;;;;;;;17.67;32.97;100900.13;12205450;19;20032;-82
2022/03/25 10:48:52;;;;;;;41.75;25.27;;;;;;;17.66;32.11;100887.28;12184716;19;20015;-82
2022/03/25 10:53:09;;;;;;;49.20;24.77;;;;;;;17.99;32.37;100893.59;12200023;19;20006;-81
2022/03/25 10:57:11;;;;;;;46.50;24.50;;;;;;;18.29;33.07;100886.44;12203488;19;20078;-82
2022/03/25 11:01:13;;;;;;;40.45;24.50;;;;;;;18.37;32.29;100888.69;12195368;19;20038;-81
2022/03/25 11:05:16;;;;;;;43.42;25.13;;;;;;;18.28;31.03;100893.13;12206518;19;20028;-82
2022/03/25 11:09:20;;;;;;;43.92;26.40;;;;;;;18.40;30.86;100876.97;12184599;19;20034;-80
2022/03/25 11:13:23;;;;;;;40.28;23.20;;;;;;;18.56;31.41;100883.41;12199989;19;20503;-82
2022/03/25 11:17:26;;;;;;;42.83;24.65;;;;;;;18.93;31.43;100886.00;12193264;19;20010;-81
2022/03/25 11:21:30;;;;;;;39.50;23.83;;;;;;;19.04;30.42;100889.63;12184404;19;20075;-81
2022/03/25 11:25:37;;;;;;;38.15;23.90;;;;;;;19.09;30.37;100886.81;12203440;19;20014;-82
2022/03/25 11:29:47;;;;;;;37.70;23.73;;;;;;;18.99;30.12;100878.44;12203177;19;20015;-81
2022/03/25 11:34:11;;;;;;;41.47;25.00;;;;;;;19.13;29.73;100871.19;12186865;19;20007;-81
2022/03/25 11:38:19;;;;;;;41.13;23.98;;;;;;;19.38;30.56;100870.28;12210083;19;20006;-82
2022/03/25 11:42:45;;;;;;;41.40;22.88;;;;;;;19.53;29.31;100870.25;12190425;19;20049;-81
2022/03/25 11:46:59;;;;;;;40.60;24.88;;;;;;;19.42;28.79;100862.16;12198105;19;20583;-82
2022/03/25 11:51:01;;;;;;;39.83;23.75;;;;;;;19.55;28.65;100861.59;12201723;19;20038;-83
2022/03/25 11:55:04;;;;;;;44.17;26.27;;;;;;;20.01;28.78;100858.63;12178008;19;20010;-83
2022/03/25 11:59:08;;;;;;;42.33;27.05;;;;;;;20.74;28.38;100852.31;12204155;19;20086;-82
2022/03/25 12:03:10;;;;;;;42.42;27.10;;;;;;;21.37;28.37;100848.66;12203712;19;20011;-80
2022/03/25 12:07:16;;;;;;;40.55;25.13;;;;;;;21.81;27.25;100848.41;12187074;19;20018;-83
2022/03/25 12:11:50;;;;;;;43.28;25.27;;;;;;;22.29;25.68;100837.13;12209949;19;20487;-84
2022/03/25 12:16:05;;;;;;;42.45;24.80;;;;;;;22.40;24.89;100835.00;12178162;19;20356;-84
2022/03/25 12:20:09;;;;;;;40.55;26.77;;;;;;;22.93;25.54;100831.88;12204308;19;20015;-86
2022/03/25 12:24:18;;;;;;;40.85;26.17;;;;;;;23.13;25.21;100830.69;12197612;19;20375;-87
2022/03/25 12:28:23;;;;;;;42.03;26.50;;;;;;;23.74;25.03;100839.94;12214799;19;20058;-85
2022/03/25 12:32:31;;;;;;;42.60;26.58;;;;;;;23.62;23.61;100831.16;12213998;19;20491;-85
2022/03/25 12:36:42;;;;;;;37.80;27.23;;;;;;;23.95;23.08;100819.81;12198756;19;20075;-81
2022/03/25 12:40:45;;;;;;;43.55;29.50;;;;;;;23.88;22.70;100815.44;12215896;19;20099;-86
2022/03/25 12:45:07;;;;;;;37.35;26.70;;;;;;;24.43;23.61;100816.47;12204291;19;20010;-84
2022/03/25 12:49:13;;;;;;;40.30;26.92;;;;;;;24.86;22.56;100799.84;12195258;19;20518;-84
2022/03/25 12:53:20;;;;;;;41.58;28.98;;;;;;;25.03;22.53;100799.13;12207273;19;20653;-83
2022/03/25 12:57:34;;;;;;;41.08;28.23;;;;;;;25.05;22.05;100804.47;12182426;19;20072;-83
2022/03/25 13:01:44;;;;;;;35.42;27.27;;;;;;;25.45;21.05;100797.69;12215577;19;20790;-82
2022/03/25 13:05:47;;;;;;;42.30;29.00;;;;;;;25.47;21.15;100797.38;12215299;19;20005;-84
2022/03/25 13:09:53;;;;;;;42.35;27.75;;;;;;;25.85;20.45;100775.13;12195411;19;20015;-83
2022/03/25 13:13:57;;;;;;;37.50;26.73;;;;;;;25.85;19.97;100789.22;12208921;19;20014;-83
2022/03/25 13:18:03;;;;;;;38.50;26.52;;;;;;;25.98;20.22;100783.75;12212457;19;20010;-83
2022/03/25 13:22:18;;;;;;;37.13;26.80;;;;;;;24.93;21.38;100782.50;12197373;19;20007;-83
2022/03/25 13:26:26;;;;;;;39.28;27.17;;;;;;;24.17;21.27;100771.16;12215701;19;20010;-83
2022/03/25 13:30:29;;;;;;;40.78;26.25;;;;;;;23.27;22.08;100787.72;12197116;19;20078;-82
2022/03/25 13:34:31;;;;;;;40.45;25.27;;;;;;;22.65;22.09;100771.09;12217093;19;20006;-83
2022/03/25 13:38:37;;;;;;;42.83;25.95;;;;;;;22.17;23.04;100762.91;12219073;19;20349;-83
2022/03/25 13:42:38;;;;;;;40.20;24.38;;;;;;;21.92;23.56;100769.69;12199579;19;20022;-84
2022/03/25 13:46:40;;;;;;;43.17;23.57;;;;;;;22.20;23.47;100767.91;12211517;19;20026;-83
2022/03/25 13:50:54;;;;;;;37.92;24.85;;;;;;;22.35;22.24;100750.00;12212142;19;20010;-82
2022/03/25 13:55:31;;;;;;;37.22;23.15;;;;;;;23.02;22.65;100755.28;12183471;19;20453;-85
2022/03/25 13:59:39;;;;;;;39.45;22.52;;;;;;;23.89;21.66;100743.09;12210168;19;20015;-83
2022/03/25 14:03:41;;;;;;;35.15;22.23;;;;;;;24.56;20.59;100745.97;12192335;19;20402;-82
2022/03/25 14:07:46;;;;;;;33.67;22.35;;;;;;;24.01;20.99;100736.91;12211721;19;20123;-84
2022/03/25 14:11:48;;;;;;;36.05;24.10;;;;;;;23.32;21.65;100742.59;12205123;19;20010;-85
2022/03/25 14:15:50;;;;;;;39.22;24.95;;;;;;;22.82;22.26;100734.84;12190563;19;20011;-84
2022/03/25 14:20:16;;;;;;;39.13;25.38;;;;;;;22.07;23.17;100735.78;12213457;19;20015;-83
2022/03/25 14:24:34;;;;;;;37.70;24.13;;;;;;;21.70;23.22;100737.47;12197394;19;20378;-83
2022/03/25 14:28:36;;;;;;;38.63;23.50;;;;;;;21.48;23.52;100726.00;12215876;19;20013;-84
2022/03/25 14:32:39;;;;;;;34.47;22.70;;;;;;;21.08;23.50;100723.34;12208655;19;20014;-84
2022/03/25 14:36:41;;;;;;;38.00;22.08;;;;;;;21.14;23.37;100721.34;12188605;19;20027;-85
2022/03/25 14:40:44;;;;;;;34.28;21.92;;;;;;;21.25;23.07;100719.25;12212521;19;20006;-84
2022/03/25 14:44:50;;;;;;;38.35;22.38;;;;;;;21.56;23.27;100723.34;12215529;19;20448;-85
2022/03/25 14:48:53;;;;;;;32.60;20.60;;;;;;;22.21;22.70;100719.88;12187114;19;20007;-85
2022/03/25 14:52:57;;;;;;;33.43;20.90;;;;;;;22.70;21.99;100721.28;12213693;19;20006;-85
2022/03/25 14:57:04;;;;;;;32.40;20.45;;;;;;;23.43;21.45;100722.38;12214327;19;20006;-83
2022/03/25 15:01:13;;;;;;;34.00;19.65;;;;;;;22.65;21.87;100714.94;12194988;19;20357;-85
2022/03/25 15:05:24;;;;;;;33.33;21.65;;;;;;;22.13;21.72;100712.16;12215660;19;20352;-86
2022/03/25 15:09:31;;;;;;;33.10;19.35;;;;;;;22.18;22.14;100717.69;12197666;19;20034;-86
2022/03/25 15:13:34;;;;;;;39.83;21.23;;;;;;;22.03;21.88;100706.69;12217078;19;20062;-82
2022/03/25 15:17:36;;;;;;;32.92;19.55;;;;;;;21.55;22.34;100702.06;12216551;19;20033;-82
2022/03/25 15:21:39;;;;;;;33.08;20.42;;;;;;;21.03;22.94;100708.56;12196973;19;20014;-84
2022/03/25 15:25:41;;;;;;;34.37;21.00;;;;;;;20.82;23.59;100703.22;12235402;19;20078;-83
2022/03/25 15:34:26;;;;;;;34.75;21.35;;;;;;;21.25;23.14;100689.25;12199616;19;20014;-84
2022/03/25 15:38:48;;;;;;;36.13;20.20;;;;;;;21.25;23.62;100696.84;12218993;19;20006;-84
2022/03/25 15:42:49;;;;;;;33.47;20.40;;;;;;;;;;12201637;19;20028;-83
2022/03/25 15:46:51;;;;;;;35.43;22.07;;;;;;;20.97;23.72;100698.56;12217144;19;20386;-83
2022/03/25 15:50:53;;;;;;;36.13;20.67;;;;;;;20.79;24.03;100695.41;12215603;19;20023;-82
2022/03/25 15:54:57;;;;;;;35.30;21.15;;;;;;;20.69;24.07;100701.09;12181570;19;20084;-83
2022/03/25 15:59:00;;;;;;;37.97;22.40;;;;;;;20.45;24.16;100693.47;12214550;19;20010;-84
2022/03/25 16:03:06;;;;;;;33.88;21.25;;;;;;;20.55;24.12;100691.72;12232463;19;20041;-83
2022/03/25 16:07:09;;;;;;;33.47;21.70;;;;;;;20.27;24.44;100702.59;12192571;19;20018;-83
2022/03/25 16:11:10;;;;;;;39.28;21.95;;;;;;;20.42;24.52;100698.81;12209812;19;20003;-83
2022/03/25 16:15:13;;;;;;;38.10;21.10;;;;;;;20.37;24.39;100701.66;12206348;19;20015;-82
2022/03/25 16:19:15;;;;;;;35.60;20.98;;;;;;;20.23;24.93;100710.75;12212568;19;20107;-83
2022/03/25 16:23:18;;;;;;;36.65;21.58;;;;;;;19.98;24.90;100708.97;12218944;19;20021;-83
2022/03/25 16:27:21;;;;;;;32.22;19.98;;;;;;;19.80;25.41;100701.25;12189605;19;20051;-83
2022/03/25 16:31:27;;;;;;;38.78;21.17;;;;;;;19.47;25.14;100706.47;12213541;19;20716;-82
2022/03/25 16:35:29;;;;;;;36.78;21.02;;;;;;;19.24;25.34;100715.50;12210970;19;20014;-83
2022/03/25 16:39:33;;;;;;;34.20;20.92;;;;;;;18.98;25.59;100710.03;12187886;19;20380;-83
2022/03/25 16:43:35;;;;;;;36.78;21.80;;;;;;;18.89;26.11;100717.31;12211908;19;20086;-84
2022/03/25 16:47:38;;;;;;;42.30;23.05;;;;;;;18.66;26.15;100725.16;12210089;19;20010;-83
2022/03/25 16:51:40;;;;;;;39.22;21.63;;;;;;;18.81;26.07;100721.50;12182393;19;20038;-82
2022/03/25 16:55:42;;;;;;;37.30;20.53;;;;;;;18.83;26.14;100726.84;12207248;19;20010;-82
2022/03/25 16:59:46;;;;;;;37.72;21.17;;;;;;;18.52;26.75;100718.47;12204099;19;20741;-81
2022/03/25 17:03:50;;;;;;;;;;;;;;;18.18;27.04;100730.19;12191431;19;20544;-84
2022/03/25 17:07:53;;;;;;;42.38;22.08;;;;;;;17.79;27.23;100732.66;12214956;19;19918;-83
2022/03/25 17:11:55;;;;;;;42.90;20.92;;;;;;;17.62;27.64;100734.81;12220509;19;20492;-81
2022/03/25 17:15:57;;;;;;;34.22;20.35;;;;;;;17.34;28.19;100738.88;12201111;19;20010;-81
2022/03/25 17:19:59;;;;;;;35.85;19.67;;;;;;;17.05;28.07;100739.31;12216472;19;20026;-81
2022/03/25 17:24:01;;;;;;;41.55;20.80;;;;;;;16.75;28.73;100738.00;12220968;19;20019;-81
2022/03/25 17:28:03;;;;;;;37.10;19.70;;;;;;;16.48;28.85;100745.56;12198441;19;20555;-81
2022/03/25 17:32:05;;;;;;;36.33;20.02;;;;;;;16.12;29.64;100753.59;12214483;19;20006;-83
2022/03/25 17:36:08;;;;;;;34.45;19.20;;;;;;;15.89;29.81;100747.28;12218049;19;20006;-82
2022/03/25 17:40:10;;;;;;;40.05;19.60;;;;;;;15.63;29.76;100748.91;12193688;19;20007;-81
2022/03/25 17:44:14;;;;;;;41.50;19.93;;;;;;;15.36;30.00;100757.22;12199519;19;20390;-81
2022/03/25 17:48:22;;;;;;;40.25;19.50;;;;;;;15.06;31.20;100765.16;12184673;19;20537;-80
2022/03/25 17:52:24;;;;;;;36.33;18.55;;;;;;;14.81;30.83;100767.31;12215845;19;20074;-80
2022/03/25 17:56:26;;;;;;;40.03;18.73;;;;;;;14.64;30.98;100769.25;12212829;19;20010;-80
2022/03/25 18:00:34;;;;;;;33.45;17.88;;;;;;;14.45;31.51;100776.09;12197152;19;20504;-81
2022/03/25 18:04:42;;;;;;;34.00;19.60;;;;;;;14.23;31.67;100776.84;12214537;19;20471;-79
2022/03/25 18:08:45;;;;;;;34.08;19.33;;;;;;;14.04;31.51;100784.56;12211372;19;20031;-83
2022/03/25 18:12:47;;;;;;;34.17;19.25;;;;;;;13.87;32.58;100784.53;12197316;19;20257;-80
2022/03/25 18:16:50;;;;;;;37.15;19.42;;;;;;;13.73;32.44;100798.91;12212605;19;20551;-80
2022/03/25 18:20:55;;;;;;;40.47;20.15;;;;;;;13.57;32.47;100798.63;12213975;19;20073;-81
2022/03/25 18:24:57;;;;;;;36.38;18.85;;;;;;;13.42;33.14;100801.06;12198662;19;20007;-80
2022/03/25 18:28:59;;;;;;;38.85;18.17;;;;;;;13.33;32.91;100800.59;12235123;19;20010;-81
2022/03/25 18:33:01;;;;;;;34.70;17.80;;;;;;;13.22;33.14;100813.34;12236417;19;20025;-83
2022/03/25 18:37:03;;;;;;;37.90;17.15;;;;;;;13.04;33.21;100807.13;12222644;19;20086;-79
2022/03/25 18:41:05;;;;;;;34.33;17.48;;;;;;;12.88;33.38;100809.53;12215566;19;20045;-80